sensor_id;sensor_type;location;lat;lon;timestamp;pressure;altitude;pressure_sealevel;temperature;humidity
21760;BME280;11041;50.854;20.580;2022-12-29T00:01:03;98744.88;;;0.07;83.46
21760;BME280;11041;50.854;20.580;2022-12-29T00:03:30;98747.28;;;0.03;83.69
21760;BME280;11041;50.854;20.580;2022-12-29T00:05:57;98753.31;;;0.10;83.47
21760;BME280;11041;50.854;20.580;2022-12-29T00:08:24;98751.44;;;0.11;83.55
21760;BME280;11041;50.854;20.580;2022-12-29T00:11:17;98744.56;;;0.03;83.06
21760;BME280;11041;50.854;20.580;2022-12-29T00:13:44;98743.81;;;0.08;83.24
21760;BME280;11041;50.854;20.580;2022-12-29T00:16:31;98749.22;;;0.08;83.33
21760;BME280;11041;50.854;20.580;2022-12-29T00:19:04;98752.81;;;0.13;83.26
21760;BME280;11041;50.854;20.580;2022-12-29T00:21:31;98738.91;;;0.05;83.02
21760;BME280;11041;50.854;20.580;2022-12-29T00:24:20;98750.69;;;0.15;83.10
21760;BME280;11041;50.854;20.580;2022-12-29T00:29:49;98745.78;;;0.12;82.45
21760;BME280;11041;50.854;20.580;2022-12-29T00:32:35;98756.03;;;0.10;82.51
21760;BME280;11041;50.854;20.580;2022-12-29T00:35:45;98753.97;;;0.01;82.34
21760;BME280;11041;50.854;20.580;2022-12-29T00:38:17;98739.16;;;-0.14;82.60
21760;BME280;11041;50.854;20.580;2022-12-29T00:41:04;98728.44;;;-0.26;82.66
21760;BME280;11041;50.854;20.580;2022-12-29T00:43:49;98714.44;;;-0.39;83.02
21760;BME280;11041;50.854;20.580;2022-12-29T00:46:40;98739.56;;;-0.22;83.34
21760;BME280;11041;50.854;20.580;2022-12-29T00:49:11;98756.41;;;-0.15;82.99
21760;BME280;11041;50.854;20.580;2022-12-29T00:52:12;98738.09;;;-0.13;83.30
21760;BME280;11041;50.854;20.580;2022-12-29T00:57:07;98752.81;;;-0.04;83.20
21760;BME280;11041;50.854;20.580;2022-12-29T00:59:39;98756.69;;;0.01;83.02
21760;BME280;11041;50.854;20.580;2022-12-29T01:02:06;98745.31;;;-0.02;82.87
21760;BME280;11041;50.854;20.580;2022-12-29T01:04:33;98744.50;;;-0.02;82.33
21760;BME280;11041;50.854;20.580;2022-12-29T01:06:59;98755.38;;;0.03;81.85
21760;BME280;11041;50.854;20.580;2022-12-29T01:09:26;98731.72;;;-0.07;82.34
21760;BME280;11041;50.854;20.580;2022-12-29T01:12:12;98738.91;;;0.05;82.47
21760;BME280;11041;50.854;20.580;2022-12-29T01:14:39;98739.16;;;0.03;82.50
21760;BME280;11041;50.854;20.580;2022-12-29T01:17:06;98739.41;;;0.02;83.01
21760;BME280;11041;50.854;20.580;2022-12-29T01:19:33;98738.44;;;0.08;82.70
21760;BME280;11041;50.854;20.580;2022-12-29T01:21:59;98728.59;;;0.02;82.49
21760;BME280;11041;50.854;20.580;2022-12-29T01:24:26;98725.38;;;0.05;82.84
21760;BME280;11041;50.854;20.580;2022-12-29T01:26:52;98721.38;;;0.07;82.61
21760;BME280;11041;50.854;20.580;2022-12-29T01:29:20;98727.94;;;0.11;82.47
21760;BME280;11041;50.854;20.580;2022-12-29T01:31:46;98713.53;;;0.06;81.89
21760;BME280;11041;50.854;20.580;2022-12-29T01:34:13;98715.22;;;0.12;82.73
21760;BME280;11041;50.854;20.580;2022-12-29T01:36:40;98712.06;;;0.15;82.41
21760;BME280;11041;50.854;20.580;2022-12-29T01:39:06;98705.34;;;0.17;82.63
21760;BME280;11041;50.854;20.580;2022-12-29T01:41:33;98701.56;;;0.18;81.44
21760;BME280;11041;50.854;20.580;2022-12-29T01:44:00;98678.72;;;0.09;81.48
21760;BME280;11041;50.854;20.580;2022-12-29T01:46:41;98684.97;;;0.10;82.02
21760;BME280;11041;50.854;20.580;2022-12-29T01:49:28;98703.88;;;0.10;81.31
21760;BME280;11041;50.854;20.580;2022-12-29T01:52:04;98700.09;;;0.11;81.87
21760;BME280;11041;50.854;20.580;2022-12-29T01:54:42;98692.59;;;-0.04;81.92
21760;BME280;11041;50.854;20.580;2022-12-29T01:57:21;98709.00;;;0.11;82.18
21760;BME280;11041;50.854;20.580;2022-12-29T02:00:12;98697.00;;;0.02;82.04
21760;BME280;11041;50.854;20.580;2022-12-29T02:02:45;98708.28;;;0.16;82.29
21760;BME280;11041;50.854;20.580;2022-12-29T02:07:54;98687.81;;;0.20;81.79
21760;BME280;11041;50.854;20.580;2022-12-29T02:10:24;98698.91;;;0.24;81.96
21760;BME280;11041;50.854;20.580;2022-12-29T02:12:53;98692.94;;;0.21;82.38
21760;BME280;11041;50.854;20.580;2022-12-29T02:21:40;98686.47;;;0.23;81.82
21760;BME280;11041;50.854;20.580;2022-12-29T02:24:19;98680.75;;;0.19;81.94
21760;BME280;11041;50.854;20.580;2022-12-29T02:30:45;98668.13;;;0.25;81.98
21760;BME280;11041;50.854;20.580;2022-12-29T02:33:42;98669.63;;;0.15;81.41
21760;BME280;11041;50.854;20.580;2022-12-29T02:39:57;98663.91;;;0.12;81.82
21760;BME280;11041;50.854;20.580;2022-12-29T02:43:08;98668.31;;;0.18;82.02
21760;BME280;11041;50.854;20.580;2022-12-29T02:45:54;98677.56;;;0.22;82.66
21760;BME280;11041;50.854;20.580;2022-12-29T02:49:26;98657.56;;;0.23;82.13
21760;BME280;11041;50.854;20.580;2022-12-29T02:52:05;98667.41;;;0.29;82.09
21760;BME280;11041;50.854;20.580;2022-12-29T02:54:33;98665.50;;;0.30;81.13
21760;BME280;11041;50.854;20.580;2022-12-29T03:00:04;98669.25;;;0.29;80.63
21760;BME280;11041;50.854;20.580;2022-12-29T03:06:10;98669.72;;;0.42;80.80
21760;BME280;11041;50.854;20.580;2022-12-29T03:18:02;98663.78;;;0.46;80.14
21760;BME280;11041;50.854;20.580;2022-12-29T03:21:02;98662.50;;;0.48;80.43
21760;BME280;11041;50.854;20.580;2022-12-29T03:23:29;98659.84;;;0.53;80.65
21760;BME280;11041;50.854;20.580;2022-12-29T03:26:02;98676.63;;;0.55;80.02
21760;BME280;11041;50.854;20.580;2022-12-29T03:28:41;98669.34;;;0.56;80.26
21760;BME280;11041;50.854;20.580;2022-12-29T03:31:13;98672.41;;;0.64;80.33
21760;BME280;11041;50.854;20.580;2022-12-29T03:33:42;98667.31;;;0.68;80.25
21760;BME280;11041;50.854;20.580;2022-12-29T03:36:28;98670.31;;;0.72;79.79
21760;BME280;11041;50.854;20.580;2022-12-29T03:39:13;98657.31;;;0.69;79.55
21760;BME280;11041;50.854;20.580;2022-12-29T03:41:44;98648.53;;;0.56;80.09
21760;BME280;11041;50.854;20.580;2022-12-29T03:44:13;98664.81;;;0.61;79.93
21760;BME280;11041;50.854;20.580;2022-12-29T03:46:40;98653.75;;;0.63;80.28
21760;BME280;11041;50.854;20.580;2022-12-29T03:49:06;98639.03;;;0.54;80.50
21760;BME280;11041;50.854;20.580;2022-12-29T03:51:33;98643.13;;;0.56;80.49
21760;BME280;11041;50.854;20.580;2022-12-29T03:54:00;98630.13;;;0.53;80.55
21760;BME280;11041;50.854;20.580;2022-12-29T03:56:27;98637.81;;;0.67;80.80
21760;BME280;11041;50.854;20.580;2022-12-29T03:58:53;98624.31;;;0.67;80.67
21760;BME280;11041;50.854;20.580;2022-12-29T04:01:20;98629.28;;;0.75;80.83
21760;BME280;11041;50.854;20.580;2022-12-29T04:03:47;98614.91;;;0.74;80.31
21760;BME280;11041;50.854;20.580;2022-12-29T04:06:13;98604.38;;;0.73;80.72
21760;BME280;11041;50.854;20.580;2022-12-29T04:08:39;98605.84;;;0.85;80.41
21760;BME280;11041;50.854;20.580;2022-12-29T04:11:06;98599.44;;;0.70;80.45
21760;BME280;11041;50.854;20.580;2022-12-29T04:13:32;98615.56;;;0.87;80.60
21760;BME280;11041;50.854;20.580;2022-12-29T04:15:59;98603.13;;;0.85;79.58
21760;BME280;11041;50.854;20.580;2022-12-29T04:18:26;98600.19;;;0.87;79.15
21760;BME280;11041;50.854;20.580;2022-12-29T04:20:52;98603.19;;;0.91;78.55
21760;BME280;11041;50.854;20.580;2022-12-29T04:23:31;98605.72;;;1.02;78.53
21760;BME280;11041;50.854;20.580;2022-12-29T04:25:58;98580.56;;;1.02;78.12
21760;BME280;11041;50.854;20.580;2022-12-29T04:28:26;98579.84;;;1.12;77.25
21760;BME280;11041;50.854;20.580;2022-12-29T04:30:52;98578.75;;;1.13;76.46
21760;BME280;11041;50.854;20.580;2022-12-29T04:33:19;98592.84;;;1.15;76.91
21760;BME280;11041;50.854;20.580;2022-12-29T04:35:47;98591.28;;;1.19;77.35
21760;BME280;11041;50.854;20.580;2022-12-29T04:38:15;98574.25;;;1.23;76.90
21760;BME280;11041;50.854;20.580;2022-12-29T04:40:43;98568.53;;;1.20;76.72
21760;BME280;11041;50.854;20.580;2022-12-29T04:43:10;98565.84;;;1.25;76.88
21760;BME280;11041;50.854;20.580;2022-12-29T04:45:38;98543.66;;;1.23;76.35
21760;BME280;11041;50.854;20.580;2022-12-29T04:48:05;98551.81;;;1.28;75.88
21760;BME280;11041;50.854;20.580;2022-12-29T04:50:31;98549.16;;;1.33;76.15
21760;BME280;11041;50.854;20.580;2022-12-29T04:52:58;98540.44;;;1.26;76.13
21760;BME280;11041;50.854;20.580;2022-12-29T04:55:25;98559.38;;;1.26;75.85
21760;BME280;11041;50.854;20.580;2022-12-29T04:57:52;98558.84;;;1.29;75.68
21760;BME280;11041;50.854;20.580;2022-12-29T05:00:19;98564.81;;;1.26;75.40
21760;BME280;11041;50.854;20.580;2022-12-29T05:02:45;98566.69;;;1.25;75.85
21760;BME280;11041;50.854;20.580;2022-12-29T05:05:12;98550.09;;;1.17;76.04
21760;BME280;11041;50.854;20.580;2022-12-29T05:07:39;98563.47;;;1.28;76.07
21760;BME280;11041;50.854;20.580;2022-12-29T05:10:06;98565.91;;;1.30;76.26
21760;BME280;11041;50.854;20.580;2022-12-29T05:12:35;98567.81;;;1.35;75.84
21760;BME280;11041;50.854;20.580;2022-12-29T05:15:05;98557.75;;;1.25;76.35
21760;BME280;11041;50.854;20.580;2022-12-29T05:17:32;98565.59;;;1.26;75.88
21760;BME280;11041;50.854;20.580;2022-12-29T05:19:59;98560.44;;;1.25;75.96
21760;BME280;11041;50.854;20.580;2022-12-29T05:22:26;98555.09;;;1.30;76.09
21760;BME280;11041;50.854;20.580;2022-12-29T05:24:52;98566.47;;;1.32;76.30
21760;BME280;11041;50.854;20.580;2022-12-29T05:27:18;98568.09;;;1.33;76.15
21760;BME280;11041;50.854;20.580;2022-12-29T05:29:45;98557.84;;;1.35;75.93
21760;BME280;11041;50.854;20.580;2022-12-29T05:32:11;98546.16;;;1.35;75.30
21760;BME280;11041;50.854;20.580;2022-12-29T05:34:37;98554.59;;;1.38;75.37
21760;BME280;11041;50.854;20.580;2022-12-29T05:37:04;98538.03;;;1.35;75.43
21760;BME280;11041;50.854;20.580;2022-12-29T05:39:30;98541.03;;;1.33;75.60
21760;BME280;11041;50.854;20.580;2022-12-29T05:41:57;98551.09;;;1.38;75.97
21760;BME280;11041;50.854;20.580;2022-12-29T05:44:23;98542.16;;;1.37;75.50
21760;BME280;11041;50.854;20.580;2022-12-29T05:46:50;98538.91;;;1.40;75.50
21760;BME280;11041;50.854;20.580;2022-12-29T05:49:17;98538.56;;;1.32;75.40
21760;BME280;11041;50.854;20.580;2022-12-29T05:51:43;98556.72;;;1.31;75.36
21760;BME280;11041;50.854;20.580;2022-12-29T05:54:09;98558.06;;;1.28;75.27
21760;BME280;11041;50.854;20.580;2022-12-29T05:56:36;98557.50;;;1.26;75.50
21760;BME280;11041;50.854;20.580;2022-12-29T05:59:03;98552.59;;;1.23;76.19
21760;BME280;11041;50.854;20.580;2022-12-29T06:01:29;98546.91;;;1.25;76.71
21760;BME280;11041;50.854;20.580;2022-12-29T06:03:55;98543.66;;;1.23;76.85
21760;BME280;11041;50.854;20.580;2022-12-29T06:06:22;98543.59;;;1.18;76.50
21760;BME280;11041;50.854;20.580;2022-12-29T06:08:48;98540.09;;;1.17;76.69
21760;BME280;11041;50.854;20.580;2022-12-29T06:11:14;98551.78;;;1.23;76.71
21760;BME280;11041;50.854;20.580;2022-12-29T06:13:41;98553.78;;;1.05;76.41
21760;BME280;11041;50.854;20.580;2022-12-29T06:16:09;98555.97;;;1.03;76.88
21760;BME280;11041;50.854;20.580;2022-12-29T06:18:35;98555.13;;;1.03;76.98
21760;BME280;11041;50.854;20.580;2022-12-29T06:21:04;98569.25;;;1.10;77.12
21760;BME280;11041;50.854;20.580;2022-12-29T06:23:31;98573.25;;;1.02;77.15
21760;BME280;11041;50.854;20.580;2022-12-29T06:25:58;98574.69;;;1.10;77.25
21760;BME280;11041;50.854;20.580;2022-12-29T06:28:24;98553.78;;;1.05;77.47
21760;BME280;11041;50.854;20.580;2022-12-29T06:30:51;98565.50;;;1.11;77.72
21760;BME280;11041;50.854;20.580;2022-12-29T06:33:18;98555.78;;;1.15;77.53
21760;BME280;11041;50.854;20.580;2022-12-29T06:35:45;98547.06;;;1.08;77.12
21760;BME280;11041;50.854;20.580;2022-12-29T06:38:12;98557.94;;;1.13;77.18
21760;BME280;11041;50.854;20.580;2022-12-29T06:40:39;98555.44;;;1.06;77.18
21760;BME280;11041;50.854;20.580;2022-12-29T06:43:07;98556.47;;;1.00;77.24
21760;BME280;11041;50.854;20.580;2022-12-29T06:45:34;98564.78;;;0.94;77.79
21760;BME280;11041;50.854;20.580;2022-12-29T06:48:00;98553.44;;;0.92;77.49
21760;BME280;11041;50.854;20.580;2022-12-29T06:50:26;98563.72;;;0.95;77.91
21760;BME280;11041;50.854;20.580;2022-12-29T06:52:53;98559.34;;;0.89;78.19
21760;BME280;11041;50.854;20.580;2022-12-29T06:55:19;98561.22;;;0.88;78.03
21760;BME280;11041;50.854;20.580;2022-12-29T06:57:47;98562.91;;;0.94;77.97
21760;BME280;11041;50.854;20.580;2022-12-29T07:00:14;98559.66;;;0.92;78.15
21760;BME280;11041;50.854;20.580;2022-12-29T07:02:41;98558.22;;;0.84;78.08
21760;BME280;11041;50.854;20.580;2022-12-29T07:05:07;98563.38;;;0.86;78.35
21760;BME280;11041;50.854;20.580;2022-12-29T07:07:36;98551.44;;;0.82;78.46
21760;BME280;11041;50.854;20.580;2022-12-29T07:10:03;98550.03;;;0.79;78.70
21760;BME280;11041;50.854;20.580;2022-12-29T07:12:29;98555.66;;;0.68;78.65
21760;BME280;11041;50.854;20.580;2022-12-29T07:14:56;98567.00;;;0.70;78.84
21760;BME280;11041;50.854;20.580;2022-12-29T07:17:22;98562.91;;;0.67;78.99
21760;BME280;11041;50.854;20.580;2022-12-29T07:19:49;98559.88;;;0.58;79.52
21760;BME280;11041;50.854;20.580;2022-12-29T07:22:15;98565.56;;;0.62;79.44
21760;BME280;11041;50.854;20.580;2022-12-29T07:24:41;98554.72;;;0.57;79.63
21760;BME280;11041;50.854;20.580;2022-12-29T07:27:10;98557.72;;;0.60;80.10
21760;BME280;11041;50.854;20.580;2022-12-29T07:29:39;98546.41;;;0.63;79.86
21760;BME280;11041;50.854;20.580;2022-12-29T07:32:06;98524.44;;;0.60;80.13
21760;BME280;11041;50.854;20.580;2022-12-29T07:34:32;98521.53;;;0.67;79.88
21760;BME280;11041;50.854;20.580;2022-12-29T07:36:59;98521.91;;;0.75;79.85
21760;BME280;11041;50.854;20.580;2022-12-29T07:39:25;98528.72;;;0.83;79.48
21760;BME280;11041;50.854;20.580;2022-12-29T07:41:52;98526.91;;;0.94;79.54
21760;BME280;11041;50.854;20.580;2022-12-29T07:44:18;98522.94;;;1.01;79.22
21760;BME280;11041;50.854;20.580;2022-12-29T07:46:45;98500.72;;;0.99;79.17
21760;BME280;11041;50.854;20.580;2022-12-29T07:49:12;98523.63;;;1.24;78.78
21760;BME280;11041;50.854;20.580;2022-12-29T07:51:38;98520.44;;;1.32;78.65
21760;BME280;11041;50.854;20.580;2022-12-29T07:54:05;98525.94;;;1.42;78.32
21760;BME280;11041;50.854;20.580;2022-12-29T07:56:31;98527.88;;;1.47;78.21
21760;BME280;11041;50.854;20.580;2022-12-29T07:58:58;98524.91;;;1.54;77.66
21760;BME280;11041;50.854;20.580;2022-12-29T08:01:25;98528.22;;;1.66;77.92
21760;BME280;11041;50.854;20.580;2022-12-29T08:03:51;98517.44;;;1.71;76.98
21760;BME280;11041;50.854;20.580;2022-12-29T08:06:18;98509.84;;;1.73;76.69
21760;BME280;11041;50.854;20.580;2022-12-29T08:08:46;98516.94;;;1.84;76.48
21760;BME280;11041;50.854;20.580;2022-12-29T08:11:13;98518.59;;;1.85;76.23
21760;BME280;11041;50.854;20.580;2022-12-29T08:13:39;98528.38;;;1.97;75.94
21760;BME280;11041;50.854;20.580;2022-12-29T08:16:06;98532.44;;;1.99;76.08
21760;BME280;11041;50.854;20.580;2022-12-29T08:18:32;98531.66;;;2.04;76.11
21760;BME280;11041;50.854;20.580;2022-12-29T08:21:03;98543.66;;;2.18;75.33
21760;BME280;11041;50.854;20.580;2022-12-29T08:23:30;98543.66;;;2.23;75.34
21760;BME280;11041;50.854;20.580;2022-12-29T08:26:04;98542.63;;;2.29;75.23
21760;BME280;11041;50.854;20.580;2022-12-29T08:28:31;98545.88;;;2.31;75.41
21760;BME280;11041;50.854;20.580;2022-12-29T08:31:01;98549.16;;;2.39;75.07
21760;BME280;11041;50.854;20.580;2022-12-29T08:33:28;98553.25;;;2.51;75.10
21760;BME280;11041;50.854;20.580;2022-12-29T08:36:06;98553.00;;;2.58;75.47
21760;BME280;11041;50.854;20.580;2022-12-29T08:38:33;98538.88;;;2.56;74.21
21760;BME280;11041;50.854;20.580;2022-12-29T08:41:00;98553.00;;;2.68;74.16
21760;BME280;11041;50.854;20.580;2022-12-29T08:43:30;98548.41;;;2.74;74.43
21760;BME280;11041;50.854;20.580;2022-12-29T08:45:58;98532.41;;;2.72;75.06
21760;BME280;11041;50.854;20.580;2022-12-29T08:48:26;98532.41;;;2.83;74.14
21760;BME280;11041;50.854;20.580;2022-12-29T08:50:53;98535.69;;;2.85;73.88
21760;BME280;11041;50.854;20.580;2022-12-29T08:53:19;98531.59;;;2.87;73.93
21760;BME280;11041;50.854;20.580;2022-12-29T08:55:47;98538.13;;;2.86;73.68
21760;BME280;11041;50.854;20.580;2022-12-29T08:58:20;98540.56;;;2.93;73.80
21760;BME280;11041;50.854;20.580;2022-12-29T09:00:47;98537.28;;;2.91;73.48
21760;BME280;11041;50.854;20.580;2022-12-29T09:03:13;98540.00;;;2.91;73.97
21760;BME280;11041;50.854;20.580;2022-12-29T09:05:40;98551.41;;;2.98;73.33
21760;BME280;11041;50.854;20.580;2022-12-29T09:08:06;98553.88;;;2.94;73.70
21760;BME280;11041;50.854;20.580;2022-12-29T09:10:33;98544.09;;;2.93;73.86
21760;BME280;11041;50.854;20.580;2022-12-29T09:12:59;98548.72;;;3.03;73.76
21760;BME280;11041;50.854;20.580;2022-12-29T09:15:26;98545.72;;;3.05;74.14
21760;BME280;11041;50.854;20.580;2022-12-29T09:17:52;98534.06;;;3.04;73.85
21760;BME280;11041;50.854;20.580;2022-12-29T09:20:19;98538.13;;;3.07;73.75
21760;BME280;11041;50.854;20.580;2022-12-29T09:22:47;98538.69;;;3.09;73.69
21760;BME280;11041;50.854;20.580;2022-12-29T09:25:14;98549.78;;;3.17;73.14
21760;BME280;11041;50.854;20.580;2022-12-29T09:27:41;98531.34;;;3.14;74.06
21760;BME280;11041;50.854;20.580;2022-12-29T09:30:11;98529.16;;;3.22;73.42
21760;BME280;11041;50.854;20.580;2022-12-29T09:32:38;98522.09;;;3.31;73.79
21760;BME280;11041;50.854;20.580;2022-12-29T09:35:05;98524.56;;;3.27;73.77
21760;BME280;11041;50.854;20.580;2022-12-29T09:37:32;98516.13;;;3.34;73.20
21760;BME280;11041;50.854;20.580;2022-12-29T09:39:59;98516.13;;;3.44;71.95
21760;BME280;11041;50.854;20.580;2022-12-29T09:43:16;98525.34;;;3.58;72.42
21760;BME280;11041;50.854;20.580;2022-12-29T09:46:00;98524.22;;;3.65;72.12
21760;BME280;11041;50.854;20.580;2022-12-29T09:48:41;98525.31;;;3.69;71.54
21760;BME280;11041;50.854;20.580;2022-12-29T09:51:23;98517.94;;;3.74;72.17
21760;BME280;11041;50.854;20.580;2022-12-29T09:54:04;98516.81;;;3.86;71.20
21760;BME280;11041;50.854;20.580;2022-12-29T09:56:44;98504.03;;;3.91;70.88
21760;BME280;11041;50.854;20.580;2022-12-29T09:59:20;98509.41;;;4.01;71.41
21760;BME280;11041;50.854;20.580;2022-12-29T10:02:27;98498.81;;;4.05;70.51
21760;BME280;11041;50.854;20.580;2022-12-29T10:04:55;98487.63;;;4.12;70.94
21760;BME280;11041;50.854;20.580;2022-12-29T10:07:44;98499.00;;;4.24;70.99
21760;BME280;11041;50.854;20.580;2022-12-29T10:10:30;98489.69;;;4.30;70.72
21760;BME280;11041;50.854;20.580;2022-12-29T10:22:02;98490.84;;;4.63;68.08
21760;BME280;11041;50.854;20.580;2022-12-29T10:24:37;98465.56;;;4.63;68.60
21760;BME280;11041;50.854;20.580;2022-12-29T10:27:10;98478.28;;;4.73;68.54
21760;BME280;11041;50.854;20.580;2022-12-29T10:29:48;98477.38;;;4.82;68.56
21760;BME280;11041;50.854;20.580;2022-12-29T10:32:39;98481.44;;;4.85;68.91
21760;BME280;11041;50.854;20.580;2022-12-29T10:35:24;98475.06;;;5.00;67.85
21760;BME280;11041;50.854;20.580;2022-12-29T10:38:27;98466.03;;;5.04;68.48
21760;BME280;11041;50.854;20.580;2022-12-29T10:41:26;98464.34;;;5.13;67.81
21760;BME280;11041;50.854;20.580;2022-12-29T10:43:57;98454.78;;;5.16;67.51
21760;BME280;11041;50.854;20.580;2022-12-29T10:46:35;98446.59;;;5.16;67.57
21760;BME280;11041;50.854;20.580;2022-12-29T10:49:04;98451.88;;;5.31;66.82
21760;BME280;11041;50.854;20.580;2022-12-29T10:51:40;98450.00;;;5.32;67.51
21760;BME280;11041;50.854;20.580;2022-12-29T10:54:32;98443.44;;;5.33;67.18
21760;BME280;11041;50.854;20.580;2022-12-29T10:57:10;98444.03;;;5.30;67.52
21760;BME280;11041;50.854;20.580;2022-12-29T10:59:41;98457.06;;;5.33;68.07
21760;BME280;11041;50.854;20.580;2022-12-29T11:04:54;98449.94;;;5.37;67.53
21760;BME280;11041;50.854;20.580;2022-12-29T11:07:24;98444.50;;;5.37;66.88
21760;BME280;11041;50.854;20.580;2022-12-29T11:09:52;98435.47;;;5.42;66.38
21760;BME280;11041;50.854;20.580;2022-12-29T11:12:27;98428.88;;;5.43;66.33
21760;BME280;11041;50.854;20.580;2022-12-29T11:17:52;98417.47;;;5.41;66.67
21760;BME280;11041;50.854;20.580;2022-12-29T11:20:38;98424.50;;;5.47;66.74
21760;BME280;11041;50.854;20.580;2022-12-29T11:23:35;98417.47;;;5.41;66.99
21760;BME280;11041;50.854;20.580;2022-12-29T11:26:13;98413.81;;;5.50;67.01
21760;BME280;11041;50.854;20.580;2022-12-29T11:31:47;98413.81;;;5.50;66.64
21760;BME280;11041;50.854;20.580;2022-12-29T11:34:24;98422.38;;;5.63;66.78
21760;BME280;11041;50.854;20.580;2022-12-29T11:37:04;98417.47;;;5.65;67.13
21760;BME280;11041;50.854;20.580;2022-12-29T11:39:45;98436.47;;;5.70;66.53
21760;BME280;11041;50.854;20.580;2022-12-29T11:42:21;98414.38;;;5.71;66.63
21760;BME280;11041;50.854;20.580;2022-12-29T11:44:51;98414.31;;;5.76;66.56
21760;BME280;11041;50.854;20.580;2022-12-29T11:47:36;98416.91;;;5.87;67.38
21760;BME280;11041;50.854;20.580;2022-12-29T11:50:07;98412.19;;;5.97;66.55
21760;BME280;11041;50.854;20.580;2022-12-29T11:52:37;98421.63;;;6.05;66.18
21760;BME280;11041;50.854;20.580;2022-12-29T11:55:24;98425.84;;;6.16;65.78
21760;BME280;11041;50.854;20.580;2022-12-29T11:57:54;98405.09;;;6.15;65.41
21760;BME280;11041;50.854;20.580;2022-12-29T12:00:24;98409.56;;;6.30;65.29
21760;BME280;11041;50.854;20.580;2022-12-29T12:03:04;98411.38;;;6.35;65.42
21760;BME280;11041;50.854;20.580;2022-12-29T12:08:36;98410.03;;;6.51;65.13
21760;BME280;11041;50.854;20.580;2022-12-29T12:11:13;98414.31;;;6.57;64.98
21760;BME280;11041;50.854;20.580;2022-12-29T12:16:53;98411.50;;;6.63;65.24
21760;BME280;11041;50.854;20.580;2022-12-29T12:19:40;98405.44;;;6.66;64.94
21760;BME280;11041;50.854;20.580;2022-12-29T12:22:21;98412.97;;;6.74;63.94
21760;BME280;11041;50.854;20.580;2022-12-29T12:25:02;98410.53;;;6.72;64.44
21760;BME280;11041;50.854;20.580;2022-12-29T12:27:48;98412.56;;;6.80;63.53
21760;BME280;11041;50.854;20.580;2022-12-29T12:30:20;98401.44;;;6.77;64.31
21760;BME280;11041;50.854;20.580;2022-12-29T12:33:04;98401.00;;;6.70;64.81
21760;BME280;11041;50.854;20.580;2022-12-29T12:38:42;98410.31;;;6.69;65.11
21760;BME280;11041;50.854;20.580;2022-12-29T12:42:02;98395.56;;;6.70;65.08
21760;BME280;11041;50.854;20.580;2022-12-29T12:45:45;98401.63;;;6.67;65.41
21760;BME280;11041;50.854;20.580;2022-12-29T12:48:27;98392.16;;;6.59;65.52
21760;BME280;11041;50.854;20.580;2022-12-29T13:00:23;98401.72;;;6.43;66.37
21760;BME280;11041;50.854;20.580;2022-12-29T13:17:51;98391.84;;;6.28;68.41
21760;BME280;11041;50.854;20.580;2022-12-29T13:20:32;98398.13;;;6.28;68.20
21760;BME280;11041;50.854;20.580;2022-12-29T13:28:59;98397.09;;;6.24;68.94
21760;BME280;11041;50.854;20.580;2022-12-29T13:31:54;98391.91;;;6.23;68.95
21760;BME280;11041;50.854;20.580;2022-12-29T13:34:39;98388.97;;;6.19;69.34
21760;BME280;11041;50.854;20.580;2022-12-29T13:37:16;98385.44;;;6.18;69.70
21760;BME280;11041;50.854;20.580;2022-12-29T13:39:58;98393.53;;;6.24;69.58
21760;BME280;11041;50.854;20.580;2022-12-29T13:42:28;98401.66;;;6.29;69.99
21760;BME280;11041;50.854;20.580;2022-12-29T13:45:13;98398.84;;;6.34;69.67
21760;BME280;11041;50.854;20.580;2022-12-29T13:47:50;98392.59;;;6.33;69.63
21760;BME280;11041;50.854;20.580;2022-12-29T13:50:26;98394.72;;;6.36;69.60
21760;BME280;11041;50.854;20.580;2022-12-29T13:56:19;98398.69;;;6.44;69.91
21760;BME280;11041;50.854;20.580;2022-12-29T13:58:55;98391.31;;;6.45;69.27
21760;BME280;11041;50.854;20.580;2022-12-29T14:01:43;98401.94;;;6.46;69.53
21760;BME280;11041;50.854;20.580;2022-12-29T14:04:35;98386.06;;;6.48;69.24
21760;BME280;11041;50.854;20.580;2022-12-29T14:07:20;98382.09;;;6.40;69.37
21760;BME280;11041;50.854;20.580;2022-12-29T14:09:57;98390.81;;;6.43;69.65
21760;BME280;11041;50.854;20.580;2022-12-29T14:12:43;98388.81;;;6.48;69.75
21760;BME280;11041;50.854;20.580;2022-12-29T14:17:41;98399.66;;;6.34;70.25
21760;BME280;11041;50.854;20.580;2022-12-29T14:20:22;98398.94;;;6.29;70.04
21760;BME280;11041;50.854;20.580;2022-12-29T14:23:00;98401.66;;;6.29;70.33
21760;BME280;11041;50.854;20.580;2022-12-29T14:28:44;98396.13;;;6.15;71.53
21760;BME280;11041;50.854;20.580;2022-12-29T14:36:40;98412.28;;;6.11;71.68
21760;BME280;11041;50.854;20.580;2022-12-29T14:39:43;98406.38;;;6.04;72.29
21760;BME280;11041;50.854;20.580;2022-12-29T14:42:12;98399.50;;;6.07;71.99
21760;BME280;11041;50.854;20.580;2022-12-29T14:45:02;98393.94;;;5.93;72.47
21760;BME280;11041;50.854;20.580;2022-12-29T14:47:38;98401.03;;;5.94;72.62
21760;BME280;11041;50.854;20.580;2022-12-29T14:50:08;98410.31;;;5.93;73.14
21760;BME280;11041;50.854;20.580;2022-12-29T14:53:00;98415.03;;;5.87;73.06
21760;BME280;11041;50.854;20.580;2022-12-29T14:55:54;98405.34;;;5.76;73.80
21760;BME280;11041;50.854;20.580;2022-12-29T14:58:31;98410.19;;;5.79;73.65
21760;BME280;11041;50.854;20.580;2022-12-29T15:01:00;98401.50;;;5.77;73.65
21760;BME280;11041;50.854;20.580;2022-12-29T15:03:38;98407.53;;;5.74;74.52
21760;BME280;11041;50.854;20.580;2022-12-29T15:06:13;98408.34;;;5.74;74.75
21760;BME280;11041;50.854;20.580;2022-12-29T15:09:09;98412.06;;;5.84;74.74
21760;BME280;11041;50.854;20.580;2022-12-29T15:16:55;98387.06;;;5.76;74.66
21760;BME280;11041;50.854;20.580;2022-12-29T15:19:27;98406.22;;;5.95;74.72
21760;BME280;11041;50.854;20.580;2022-12-29T15:21:56;98396.41;;;5.94;74.55
21760;BME280;11041;50.854;20.580;2022-12-29T15:24:24;98399.50;;;6.07;74.48
21760;BME280;11041;50.854;20.580;2022-12-29T15:26:53;98373.13;;;6.02;74.79